Nearby METAR Reports

CWGD - Goderich (autob), Ontario, Canada
Distance from station: SW 47km
Updated: 01/16/2021 9:00pm

 Wind from W
Wind: W 19 km/h, Gust: 30 km/h
Temperature: 0°C
Wind Chill: -5°C
Dew Point: -2°C
Humidity: 87%
2021/01/17 02:00 CWGD 170200Z AUTO 26010G16KT M00/M02 RMK AO1 SLP012 T10021021 58008
CWLS - Mount Forest(Mar, Ontario, Canada
Distance from station: ESE 53km
Updated: 01/16/2021 9:00pm

 Wind from W
Wind: W 11 km/h
Temperature: -2°C
Wind Chill: -6°C
Dew Point: -4°C
Humidity: 86%
2021/01/17 02:00 CWLS 170200Z AUTO 27006KT M02/M04 RMK AO1 SOG 11 8004 SLP995 T10221038
 
CYVV - Wiarton Air, Ontario, Canada
Distance from station: NNE 75km
Updated: 01/16/2021 9:00pm
Light snow, Overcast
Light snow, Overcast
 Wind from W
Wind: W 11 km/h
Temperature: 1°C
Wind Chill: -2°C
Dew Point: 0°C
Humidity: 93%
Barometer: 996.6 hPa
Summary: Light Snow
Clouds: Overcast
Visibility: 8 km
Cloud details: Partly cloudy 274 m
Overcast 427 m
2021/01/17 02:00 CYVV 170200Z 26006KT 5SM -SN SCT009 OVC014 01/M00 A2943 RMK SF3SC5 SLP977
CZEL - Elora Rcs, Ontario, Canada
Distance from station: ESE 93km
Updated: 01/16/2021 9:00pm

 Wind from W
Wind: W 19 km/h
Temperature: -2°C
Wind Chill: -8°C
Dew Point: -4°C
Humidity: 86%
2021/01/17 02:00 CZEL 170200Z AUTO 27010KT M02/M04 RMK AO1 SOG 08 8005 PK WND 30018/0117 SLP000 T10201044
 
CWCO - Collingwood (aut, Ontario, Canada
Distance from station: ENE 104km
Updated: 01/16/2021 9:00pm

 Wind from WSW
Wind: WSW 13 km/h, Gust: 28 km/h
Temperature: 1°C
Wind Chill: -3°C
Dew Point: -3°C
Humidity: 75%
2021/01/17 02:00 CWCO 170200Z AUTO 25007G15KT 01/M03 RMK AO1 PK WND 25018/0115 SLP967 T00061029 58019
CYKF - Waterloo Well, Ontario, Canada
Distance from station: SE 107km
Updated: 01/16/2021 9:28pm
Overcast
Overcast
 Wind from W
Wind: W 19 km/h
Temperature: -1°C
Wind Chill: -7°C
Dew Point: -3°C
Humidity: 86%
Barometer: 998.3 hPa
Clouds: Overcast
Visibility: 14 km
Cloud details: Partly cloudy 488 m
Overcast 701 m
2021/01/17 02:28 CYKF 170228Z AUTO 26010KT 9SM SCT016 OVC023 M01/M03 A2948 RMK SLP994
 
KP58 - Port Hope, Michigan, USA
Distance from station: W 114km
Updated: 01/16/2021 8:57pm

 Wind from WSW
Wind: WSW 11 km/h
Temperature: 0°C
Wind Chill: -4°C
Dew Point: -2°C
Humidity: 87%
Barometer: 999 hPa
2021/01/17 01:57 KP58 170157Z AUTO 25006KT 00/M02 A2950 RMK AO1 SLP002 T00001022
CYBN - Borden, Ontario, Canada
Distance from station: E 118km
Updated: 01/16/2021 9:00pm
Mostly cloudy
Mostly cloudy
 Wind from WSW
Wind: WSW 20 km/h, Gust: 30 km/h
Temperature: 0°C
Wind Chill: -6°C
Dew Point: -4°C
Humidity: 75%
Barometer: 996.3 hPa
Clouds: Mostly cloudy
Visibility: 14 km
Cloud details: Few Clouds 1250 m
Partly cloudy 2103 m
Mostly cloudy 2774 m
2021/01/17 02:00 CYBN 170200Z AUTO 25011G16KT 9SM FEW041 SCT069 BKN091 M00/M04 A2942 RMK SLP970
 
CYXU - London Airport, Ontario, Canada
Distance from station: S 123km
Updated: 01/16/2021 9:00pm
Overcast
Overcast
 Wind from W
Wind: W 15 km/h
Temperature: -1°C
Wind Chill: -6°C
Dew Point: -4°C
Humidity: 80%
Barometer: 999.7 hPa
Clouds: Overcast
Visibility: 24 km
Cloud details: Overcast 488 m
2021/01/17 02:00 CYXU 170200Z 26008KT 15SM OVC016 M01/M04 A2952 RMK SC8 CIG RAG SLP009
CXET - Egbert Cs, Ontario, Canada
Distance from station: E 128km
Updated: 01/16/2021 9:00pm

 Wind from WSW
Wind: WSW 11 km/h
Temperature: -1°C
Wind Chill: -5°C
Dew Point: -4°C
Humidity: 80%
2021/01/17 02:00 CXET 170200Z AUTO 25006KT M01/M04 RMK AO1 SOG 08 8011 SLP970 T10091043
 
CWMZ - Western Isl (map, Ontario, Canada
Distance from station: NE 129km
Updated: 01/16/2021 9:00pm

 
2021/01/17 02:00 CWMZ 170200Z AUTO RMK AO1
KBAX - Bad Axe, Michigan, USA
Distance from station: WSW 133km
Updated: 01/16/2021 9:35pm
Mist, Overcast
Mist, Overcast
 Wind from W
Wind: W 13 km/h, Gust: 26 km/h
Temperature: -1°C
Wind Chill: -6°C
Dew Point: -1°C
Humidity: 100%
Barometer: 999.7 hPa
Summary: Mist
Clouds: Overcast
Visibility: 8 km
Cloud details: Overcast 183 m
2021/01/17 02:35 KBAX 170235Z AUTO 26007G14KT 5SM BR OVC006 M01/M01 A2952 RMK AO2 T10101012
 
CWWX - Cove Island (map, Ontario, Canada
Distance from station: NNW 137km
Updated: 01/16/2021 9:00pm

 Wind from N
Wind: N 20 km/h
Temperature: 1°C
Wind Chill: -4°C
Dew Point: 0°C
Humidity: 93%
2021/01/17 02:00 CWWX 170200Z AUTO 01011KT 01/M00 RMK AO1 SLP976 T00121001 56006
CYZR - Sarnia Airport, Ontario, Canada
Distance from station: SSW 144km
Updated: 01/16/2021 9:04pm
Light snow, Overcast
Light snow, Overcast
 Wind from WSW
Wind: WSW 15 km/h
Temperature: 0°C
Wind Chill: -4°C
Dew Point: -2°C
Humidity: 87%
Barometer: 1000.3 hPa
Summary: Light Snow
Clouds: Overcast
Visibility: 13 km
Cloud details: Few Clouds 488 m
Overcast 853 m
2021/01/17 02:04 CYZR 170204Z AUTO 24008KT 8SM -SN FEW016 OVC028 M00/M02 A2954 RMK SLP010
 
CXHM - Hamilton Rbg Cs, Ontario, Canada
Distance from station: SE 150km
Updated: 01/16/2021 9:00pm

 Wind from W
Wind: W 11 km/h
Temperature: 0°C
Wind Chill: -4°C
Dew Point: -4°C
Humidity: 75%
2021/01/17 02:00 CXHM 170200Z AUTO 26006KT M00/M04 RMK AO1 PK WND 30017/0111 SLP995 T10041040 58002
CYYZ - Toronto/Pearson, Ontario, Canada
Distance from station: ESE 150km
Updated: 01/16/2021 9:00pm
Overcast
Overcast
 Wind from W
Wind: W 31 km/h, Gust: 41 km/h
Temperature: 0°C
Wind Chill: -7°C
Dew Point: -4°C
Humidity: 75%
Barometer: 997.6 hPa
Clouds: Overcast
Visibility: 24 km
Cloud details: Overcast 823 m
2021/01/17 02:00 CYYZ 170200Z 27017G22KT 15SM OVC027 00/M04 A2946 RMK SC8 SLP984
 
CXBI - Barrie-Oro, Ontario, Canada
Distance from station: ENE 151km
Updated: 01/16/2021 9:00pm

 Wind from W
Wind: W 20 km/h
Temperature: -1°C
Wind Chill: -7°C
Dew Point: -4°C
Humidity: 80%
2021/01/17 02:00 CXBI 170200Z AUTO 27011KT M01/M04 RMK AO1 SOG 20 8014 SLP965 T10101040
CXDI - Delhi Cs (aut), Ontario, Canada
Distance from station: SSE 154km
Updated: 01/16/2021 9:00pm

 Wind from WNW
Wind: WNW 9 km/h
Temperature: -1°C
Wind Chill: -4°C
Dew Point: -4°C
Humidity: 80%
2021/01/17 02:00 CXDI 170200Z AUTO 29005KT M01/M04 RMK AO1 SLP013 T10071044 50000
 
CWWB - Burlington Piers, Ontario, Canada
Distance from station: SE 157km
Updated: 01/16/2021 9:00pm

 Wind from WSW
Wind: WSW 17 km/h
Temperature: 1°C
Wind Chill: -3°C
Dew Point: -4°C
Humidity: 70%
2021/01/17 02:00 CWWB 170200Z AUTO 25009KT 01/M04 RMK AO1 PK WND 28021/0104 SLP993 T00071044 56002
CYHM - Hamilton Airport, Ontario, Canada
Distance from station: SE 157km
Updated: 01/16/2021 9:00pm
Overcast
Overcast
 Wind from W
Wind: W 17 km/h
Temperature: -1°C
Wind Chill: -6°C
Dew Point: -4°C
Humidity: 80%
Barometer: 998.6 hPa
Clouds: Overcast
Visibility: 24 km
Cloud details: Partly cloudy 518 m
Overcast 732 m
2021/01/17 02:00 CYHM 170200Z 26009KT 15SM SCT017 OVC024 M01/M04 A2949 WS RWYSC RMK SC3SC5 SLP997